Cold Bay Airport
PACD : now visible

Airfield :











YOU CAN JOIN US ON...

 
LOGIN :

Register | Disclaimer

   EN    FR    IT 

 









Legend :    VFR   Marginal VFR   IFR   Intensive IFR   Very Intensive IFR
Visi :
Ceiling :
>= 8 km
>= 3000ft
5 to 8 km
1000 to 3000 ft
1500m to 5 km
500 to 1000 ft
800 to 1500m
200 to 500 ft
< 800m
< 200 ft
Symbols :   Thunderstorms  Fog  Heavy snow  Heavy precipitations  Wind > 20 kt






- Airport Elevation : 96 ft
- IATA code : CDB


PACD - Cold Bay

EXPIRED METARs :
  • 261853Z 24012KT 10SM CLR 00/M03 A2954 RMK AO2 PK WND 24031/1757 SNB05E22 SLP005 P0000 T00001028 $

TAF PACD
Valid from the 26 at 18:00 until the 27 at 18:00 UTC


261733Z 2618/2718 25015KT P6SM FEW035
TEMPO 2618/2622 4SM -SHSN BKN025
FM270300 23010KT P6SM SCT250
FM271000 14013KT P6SM OVC025
FM271200 13015G25KT 6SM -SN BR SCT009 OVC015
FM271500 13020G30KT 4SM -SN BR OVC010
PAZA FIR / North America



MET'MAP, your aeronautical weather chart ! - Copyright ORBIFLY December 2007 - Disclaimer

ORBIFLY MET'MAP TEAM :

Programming & Development : Alexandra Zaïnal
Concept & original design : Baudouin d'Aumeries
Assistance for programming : Marc-Olivier Méhu
Technical & hardware support : Manuel Goepfert

Contact : metmap@orbifly.com




SOURCES & CREDITS :

   NOAA       Earth
Advisory